Aeroporto :
LOGIN :

Iscrizione | Disclaimer

   EN    FR    IT 

 










Sommario :    VFR   VFR Marginale   IFR   IFR Intensivo   IFR Molto Intensivo
Visibilità : 
Base nubi : 
>= 8 km
>= 3000ft
5 / 8 km
1000 / 3000 ft
1500m / 5 km
500 / 1000 ft
800 / 1500m
200 / 500 ft
< 800m
< 200 ft
Simboli :   Temporali  Nebbia  Neve Forte  Precipitazioni Forti  Vento > 20 kt
SIGMETs :   Varie  Temporali  Ghiacco  Turbolenza  Onda orograficha  Ceneri Vulcaniche






- Altitudine del aeroporto : 84 ft


LFBC - Cazaux

ULTIMO METAR :
  • 232100Z AUTO 30013KT 270V350 9999 FEW036/// SCT064/// BKN078/// ///CB 08/03 Q1002

METARs OBSOLETI :
  • 232030Z AUTO 30017G32KT 250V350 9999 -RA BKN040/// BKN066/// BKN094/// ///CB 08/04 Q1002
  • 232000Z AUTO 28009KT 250V310 9999 BKN040/// BKN180/// OVC200/// ///CB 08/04 Q1002
  • 231930Z AUTO 30005KT 270V330 9999 FEW046/// SCT130/// BKN150/// ///CB 07/04 Q1002
  • 231900Z AUTO 33017KT 270V360 9999 -RA FEW034/// SCT043/// BKN052/// ///CB 07/03 Q1002
  • 231830Z AUTO 27013G25KT 9999 FEW024/// BKN032/// BKN064/// ///CB 07/04 Q1001
  • 231800Z AUTO 30010KT 250V330 5000 +RA BR FEW022/// SCT029/// BKN037/// ///CB 07/05 Q1001
  • 231730Z AUTO 26013KT 9999 SCT039/// BKN050/// BKN072/// ///CB 08/04 Q1001
  • 231700Z AUTO 25020G37KT 220V280 9999 SCT024/// BKN033/// BKN044/// ///CB 09/05 Q1001
  • 231630Z AUTO 26014KT 9999 FEW029/// SCT058/// BKN074/// ///CB 08/05 Q1001

TAF TAF LFBC
Valido dal 23 a 09 ore il 24 a 09 ore UTC


230800Z 2309/2409 27014KT 9999 SCT025TCU SCT050 BKN200
TEMPO 2309/2409 27015G30KT 4000 SHRA SCT014 BKN020CB BKN040
PROB30
TEMPO 2309/2409 30020G40KT 2000 TSGS BKN011 BKN015CB



MetMap, La meteo Aeronautica in un colpo d'occhio ! - Copyright ORBIFLY Dicembre 2007 - Disclaimer

ORBIFLY MET'MAP TEAM :

Programmazione e sviluppo : Alexandra Zaïnal
Concezione : Baudouin d'Aumeries
Supporto tecnico e logistico : Manuel Goepfert
Aiuto : Marc-Olivier Méhu
Aiuto per la traduzione : Arnaldo La Scala




FONTI E CREDITI :

   NOAA